sensor_id;sensor_type;location;lat;lon;timestamp;pressure;altitude;pressure_sealevel;temperature;humidity
45941;BME280;31858;46.008;8.978;2022-12-18T00:02:00;95355.06;;;2.93;100.00
45941;BME280;31858;46.008;8.978;2022-12-18T00:12:01;95366.28;;;2.76;100.00
45941;BME280;31858;46.008;8.978;2022-12-18T00:22:04;95387.53;;;2.80;100.00
45941;BME280;31858;46.008;8.978;2022-12-18T00:32:06;95384.88;;;2.80;100.00
45941;BME280;31858;46.008;8.978;2022-12-18T00:42:10;95398.66;;;2.77;100.00
45941;BME280;31858;46.008;8.978;2022-12-18T00:52:29;95416.47;;;2.80;100.00
45941;BME280;31858;46.008;8.978;2022-12-18T01:02:32;95416.41;;;2.71;100.00
45941;BME280;31858;46.008;8.978;2022-12-18T01:12:34;95429.97;;;2.65;100.00
45941;BME280;31858;46.008;8.978;2022-12-18T01:22:37;95435.25;;;2.65;100.00
45941;BME280;31858;46.008;8.978;2022-12-18T01:32:39;95446.16;;;2.49;100.00
45941;BME280;31858;46.008;8.978;2022-12-18T01:42:42;95459.59;;;2.48;100.00
45941;BME280;31858;46.008;8.978;2022-12-18T01:52:47;95462.53;;;2.46;100.00
45941;BME280;31858;46.008;8.978;2022-12-18T02:02:51;95462.13;;;2.53;100.00
45941;BME280;31858;46.008;8.978;2022-12-18T02:12:57;95457.97;;;2.38;100.00
45941;BME280;31858;46.008;8.978;2022-12-18T02:23:16;95457.84;;;2.43;100.00
45941;BME280;31858;46.008;8.978;2022-12-18T02:33:25;95463.97;;;2.52;100.00
45941;BME280;31858;46.008;8.978;2022-12-18T02:43:29;95478.41;;;2.41;100.00
45941;BME280;31858;46.008;8.978;2022-12-18T02:53:37;95478.69;;;2.53;100.00
45941;BME280;31858;46.008;8.978;2022-12-18T03:03:43;95496.78;;;2.55;100.00
45941;BME280;31858;46.008;8.978;2022-12-18T03:13:53;95502.28;;;2.31;100.00
45941;BME280;31858;46.008;8.978;2022-12-18T03:23:57;95506.00;;;2.16;100.00
45941;BME280;31858;46.008;8.978;2022-12-18T03:34:02;95505.13;;;2.21;100.00
45941;BME280;31858;46.008;8.978;2022-12-18T03:44:10;95507.88;;;2.16;100.00
45941;BME280;31858;46.008;8.978;2022-12-18T03:54:15;95513.50;;;2.23;100.00
45941;BME280;31858;46.008;8.978;2022-12-18T04:04:18;95530.94;;;2.19;100.00
45941;BME280;31858;46.008;8.978;2022-12-18T04:14:21;95529.38;;;2.18;100.00
45941;BME280;31858;46.008;8.978;2022-12-18T04:24:23;95563.66;;;1.99;100.00
45941;BME280;31858;46.008;8.978;2022-12-18T04:34:26;95575.53;;;2.10;100.00
45941;BME280;31858;46.008;8.978;2022-12-18T04:44:27;95568.91;;;2.13;100.00
45941;BME280;31858;46.008;8.978;2022-12-18T04:54:30;95596.09;;;2.22;100.00
45941;BME280;31858;46.008;8.978;2022-12-18T05:04:32;95592.28;;;2.28;100.00
45941;BME280;31858;46.008;8.978;2022-12-18T05:14:34;95606.53;;;2.27;100.00
45941;BME280;31858;46.008;8.978;2022-12-18T05:24:36;95614.09;;;2.15;100.00
45941;BME280;31858;46.008;8.978;2022-12-18T05:34:39;95627.84;;;2.12;100.00
45941;BME280;31858;46.008;8.978;2022-12-18T05:44:40;95640.31;;;2.20;100.00
45941;BME280;31858;46.008;8.978;2022-12-18T05:54:43;95633.06;;;1.98;100.00
45941;BME280;31858;46.008;8.978;2022-12-18T06:04:45;95644.66;;;1.97;100.00
45941;BME280;31858;46.008;8.978;2022-12-18T06:14:48;95655.94;;;1.98;100.00
45941;BME280;31858;46.008;8.978;2022-12-18T06:24:50;95668.06;;;2.12;100.00
45941;BME280;31858;46.008;8.978;2022-12-18T06:34:53;95682.88;;;1.89;100.00
45941;BME280;31858;46.008;8.978;2022-12-18T06:44:55;95689.47;;;2.06;100.00
45941;BME280;31858;46.008;8.978;2022-12-18T06:54:58;95698.91;;;2.07;100.00
45941;BME280;31858;46.008;8.978;2022-12-18T07:05:00;95703.25;;;1.98;100.00
45941;BME280;31858;46.008;8.978;2022-12-18T07:15:04;95728.97;;;2.01;100.00
45941;BME280;31858;46.008;8.978;2022-12-18T07:25:07;95757.09;;;2.00;100.00
45941;BME280;31858;46.008;8.978;2022-12-18T07:35:10;95777.00;;;2.06;100.00
45941;BME280;31858;46.008;8.978;2022-12-18T07:45:11;95786.25;;;1.85;100.00
45941;BME280;31858;46.008;8.978;2022-12-18T07:55:14;95805.00;;;1.78;100.00
45941;BME280;31858;46.008;8.978;2022-12-18T08:05:16;95819.56;;;1.71;100.00
45941;BME280;31858;46.008;8.978;2022-12-18T08:15:19;95817.66;;;1.95;100.00
45941;BME280;31858;46.008;8.978;2022-12-18T08:25:21;95832.28;;;1.82;100.00
45941;BME280;31858;46.008;8.978;2022-12-18T08:35:24;95836.25;;;1.80;100.00
45941;BME280;31858;46.008;8.978;2022-12-18T08:45:25;95843.06;;;1.81;100.00
45941;BME280;31858;46.008;8.978;2022-12-18T08:55:29;95845.56;;;1.91;100.00
45941;BME280;31858;46.008;8.978;2022-12-18T09:05:30;95862.06;;;2.15;100.00
45941;BME280;31858;46.008;8.978;2022-12-18T09:15:33;95863.97;;;2.10;100.00
45941;BME280;31858;46.008;8.978;2022-12-18T09:25:35;95861.41;;;2.05;100.00
45941;BME280;31858;46.008;8.978;2022-12-18T09:35:42;95876.91;;;2.06;100.00
45941;BME280;31858;46.008;8.978;2022-12-18T09:45:46;95870.84;;;2.06;100.00
45941;BME280;31858;46.008;8.978;2022-12-18T09:55:51;95872.72;;;2.24;100.00
45941;BME280;31858;46.008;8.978;2022-12-18T10:06:00;95861.03;;;2.49;100.00
45941;BME280;31858;46.008;8.978;2022-12-18T10:16:09;95857.31;;;2.50;100.00
45941;BME280;31858;46.008;8.978;2022-12-18T10:26:15;95858.09;;;2.50;100.00
45941;BME280;31858;46.008;8.978;2022-12-18T10:36:18;95851.28;;;2.49;100.00
45941;BME280;31858;46.008;8.978;2022-12-18T10:46:20;95859.47;;;2.61;100.00
45941;BME280;31858;46.008;8.978;2022-12-18T10:56:24;95856.59;;;2.77;100.00
45941;BME280;31858;46.008;8.978;2022-12-18T11:06:26;95862.38;;;2.92;100.00
45941;BME280;31858;46.008;8.978;2022-12-18T11:16:32;95862.44;;;3.20;100.00
45941;BME280;31858;46.008;8.978;2022-12-18T11:26:35;95885.84;;;3.35;100.00
45941;BME280;31858;46.008;8.978;2022-12-18T11:36:41;95865.28;;;3.51;100.00
45941;BME280;31858;46.008;8.978;2022-12-18T11:46:47;95865.94;;;3.56;100.00
45941;BME280;31858;46.008;8.978;2022-12-18T11:56:56;95853.91;;;3.78;100.00
45941;BME280;31858;46.008;8.978;2022-12-18T12:07:06;95841.34;;;3.97;100.00
45941;BME280;31858;46.008;8.978;2022-12-18T12:17:19;95835.53;;;4.22;100.00
45941;BME280;31858;46.008;8.978;2022-12-18T12:27:33;95829.34;;;4.27;100.00
45941;BME280;31858;46.008;8.978;2022-12-18T12:37:47;95826.13;;;4.30;100.00
45941;BME280;31858;46.008;8.978;2022-12-18T12:47:53;95815.38;;;4.26;100.00
45941;BME280;31858;46.008;8.978;2022-12-18T12:58:05;95805.97;;;4.34;100.00
45941;BME280;31858;46.008;8.978;2022-12-18T13:08:10;95809.91;;;4.45;100.00
45941;BME280;31858;46.008;8.978;2022-12-18T13:18:19;95815.13;;;4.59;100.00
45941;BME280;31858;46.008;8.978;2022-12-18T13:28:22;95792.88;;;4.51;100.00
45941;BME280;31858;46.008;8.978;2022-12-18T13:38:33;95784.25;;;4.59;100.00
45941;BME280;31858;46.008;8.978;2022-12-18T13:48:38;95787.41;;;4.70;100.00
45941;BME280;31858;46.008;8.978;2022-12-18T13:58:42;95788.06;;;4.76;100.00
45941;BME280;31858;46.008;8.978;2022-12-18T14:08:43;95806.03;;;4.96;100.00
45941;BME280;31858;46.008;8.978;2022-12-18T14:18:50;95806.16;;;4.91;100.00
45941;BME280;31858;46.008;8.978;2022-12-18T14:28:54;95818.88;;;4.89;100.00
45941;BME280;31858;46.008;8.978;2022-12-18T14:38:58;95818.06;;;4.80;100.00
45941;BME280;31858;46.008;8.978;2022-12-18T14:49:01;95825.31;;;4.74;100.00
45941;BME280;31858;46.008;8.978;2022-12-18T14:59:11;95835.22;;;4.69;100.00
45941;BME280;31858;46.008;8.978;2022-12-18T15:09:22;95833.44;;;4.55;100.00
45941;BME280;31858;46.008;8.978;2022-12-18T15:19:33;95842.91;;;4.34;100.00
45941;BME280;31858;46.008;8.978;2022-12-18T15:29:36;95847.34;;;4.25;100.00
45941;BME280;31858;46.008;8.978;2022-12-18T15:39:39;95841.22;;;4.16;100.00
45941;BME280;31858;46.008;8.978;2022-12-18T15:49:40;95842.13;;;4.34;100.00
45941;BME280;31858;46.008;8.978;2022-12-18T15:59:43;95839.97;;;4.00;100.00
45941;BME280;31858;46.008;8.978;2022-12-18T16:09:47;95852.28;;;3.68;100.00
45941;BME280;31858;46.008;8.978;2022-12-18T16:19:50;95861.47;;;3.43;100.00
45941;BME280;31858;46.008;8.978;2022-12-18T16:29:52;95871.69;;;3.17;100.00
45941;BME280;31858;46.008;8.978;2022-12-18T16:39:55;95876.56;;;3.10;100.00
45941;BME280;31858;46.008;8.978;2022-12-18T16:49:56;95871.63;;;2.90;100.00
45941;BME280;31858;46.008;8.978;2022-12-18T16:59:59;95857.00;;;2.84;100.00
45941;BME280;31858;46.008;8.978;2022-12-18T17:10:01;95853.56;;;2.70;100.00
45941;BME280;31858;46.008;8.978;2022-12-18T17:20:08;95881.59;;;2.60;100.00
45941;BME280;31858;46.008;8.978;2022-12-18T17:30:10;95874.59;;;2.70;100.00
45941;BME280;31858;46.008;8.978;2022-12-18T17:40:13;95877.31;;;2.65;100.00
45941;BME280;31858;46.008;8.978;2022-12-18T17:50:15;95877.31;;;2.51;100.00
45941;BME280;31858;46.008;8.978;2022-12-18T18:00:18;95860.13;;;2.40;100.00
45941;BME280;31858;46.008;8.978;2022-12-18T18:10:20;95863.19;;;2.28;100.00
45941;BME280;31858;46.008;8.978;2022-12-18T18:20:24;95876.34;;;2.28;100.00
45941;BME280;31858;46.008;8.978;2022-12-18T18:30:27;95892.69;;;2.25;100.00
45941;BME280;31858;46.008;8.978;2022-12-18T18:40:30;95887.13;;;2.08;100.00
45941;BME280;31858;46.008;8.978;2022-12-18T18:50:32;95894.44;;;1.92;100.00
45941;BME280;31858;46.008;8.978;2022-12-18T19:00:35;95914.00;;;2.05;100.00
45941;BME280;31858;46.008;8.978;2022-12-18T19:10:38;95904.03;;;2.02;100.00
45941;BME280;31858;46.008;8.978;2022-12-18T19:20:42;95898.34;;;1.94;100.00
45941;BME280;31858;46.008;8.978;2022-12-18T19:30:44;95914.19;;;1.89;100.00
45941;BME280;31858;46.008;8.978;2022-12-18T19:40:47;95920.06;;;1.81;100.00
45941;BME280;31858;46.008;8.978;2022-12-18T19:50:49;95941.22;;;1.71;100.00
45941;BME280;31858;46.008;8.978;2022-12-18T20:00:52;95945.41;;;1.72;100.00
45941;BME280;31858;46.008;8.978;2022-12-18T20:10:53;95944.50;;;1.58;100.00
45941;BME280;31858;46.008;8.978;2022-12-18T20:20:56;95944.28;;;1.54;100.00
45941;BME280;31858;46.008;8.978;2022-12-18T20:30:59;95936.41;;;1.54;100.00
45941;BME280;31858;46.008;8.978;2022-12-18T20:41:05;95951.94;;;1.51;100.00
45941;BME280;31858;46.008;8.978;2022-12-18T20:51:10;95974.34;;;1.67;100.00
45941;BME280;31858;46.008;8.978;2022-12-18T21:01:15;95977.22;;;1.71;100.00
45941;BME280;31858;46.008;8.978;2022-12-18T21:11:25;95971.44;;;1.69;100.00
45941;BME280;31858;46.008;8.978;2022-12-18T21:21:46;95985.44;;;1.64;100.00
45941;BME280;31858;46.008;8.978;2022-12-18T21:31:48;95949.69;;;1.87;100.00
45941;BME280;31858;46.008;8.978;2022-12-18T21:41:51;95960.00;;;1.59;100.00
45941;BME280;31858;46.008;8.978;2022-12-18T21:52:10;95959.72;;;1.61;100.00
45941;BME280;31858;46.008;8.978;2022-12-18T22:02:20;95954.84;;;1.49;100.00
45941;BME280;31858;46.008;8.978;2022-12-18T22:12:22;95972.28;;;1.64;100.00
45941;BME280;31858;46.008;8.978;2022-12-18T22:22:36;95982.91;;;1.78;100.00
45941;BME280;31858;46.008;8.978;2022-12-18T22:32:38;95995.16;;;1.63;100.00
45941;BME280;31858;46.008;8.978;2022-12-18T22:42:41;96004.81;;;1.68;100.00
45941;BME280;31858;46.008;8.978;2022-12-18T22:52:42;95987.69;;;1.47;100.00
45941;BME280;31858;46.008;8.978;2022-12-18T23:02:45;95983.03;;;1.68;100.00
45941;BME280;31858;46.008;8.978;2022-12-18T23:12:47;95968.47;;;1.51;100.00
45941;BME280;31858;46.008;8.978;2022-12-18T23:22:50;95969.59;;;1.45;100.00
45941;BME280;31858;46.008;8.978;2022-12-18T23:32:52;95961.44;;;1.47;100.00
45941;BME280;31858;46.008;8.978;2022-12-18T23:42:55;95968.38;;;1.61;100.00
45941;BME280;31858;46.008;8.978;2022-12-18T23:52:57;95951.81;;;1.61;100.00
